sensor_id;sensor_type;location;lat;lon;timestamp;P1;durP1;ratioP1;P2;durP2;ratioP2
4389;SDS011;2209;48.982;8.406;2022-12-08T00:00:38;16.07;;;11.80;;
4389;SDS011;2209;48.982;8.406;2022-12-08T00:03:01;18.20;;;11.90;;
4389;SDS011;2209;48.982;8.406;2022-12-08T00:05:23;17.00;;;11.50;;
4389;SDS011;2209;48.982;8.406;2022-12-08T00:08:03;13.90;;;10.30;;
4389;SDS011;2209;48.982;8.406;2022-12-08T00:10:43;16.33;;;12.30;;
4389;SDS011;2209;48.982;8.406;2022-12-08T00:13:05;14.03;;;11.53;;
4389;SDS011;2209;48.982;8.406;2022-12-08T00:15:27;18.70;;;11.33;;
4389;SDS011;2209;48.982;8.406;2022-12-08T00:17:50;19.93;;;11.73;;
4389;SDS011;2209;48.982;8.406;2022-12-08T00:20:12;19.73;;;12.37;;
4389;SDS011;2209;48.982;8.406;2022-12-08T00:22:34;14.57;;;11.00;;
4389;SDS011;2209;48.982;8.406;2022-12-08T00:24:56;18.53;;;12.10;;
4389;SDS011;2209;48.982;8.406;2022-12-08T00:27:18;16.33;;;11.90;;
4389;SDS011;2209;48.982;8.406;2022-12-08T00:29:41;16.27;;;11.47;;
4389;SDS011;2209;48.982;8.406;2022-12-08T00:32:04;16.90;;;11.80;;
4389;SDS011;2209;48.982;8.406;2022-12-08T00:34:27;16.47;;;11.37;;
4389;SDS011;2209;48.982;8.406;2022-12-08T00:36:50;18.80;;;11.70;;
4389;SDS011;2209;48.982;8.406;2022-12-08T00:39:13;14.40;;;11.23;;
4389;SDS011;2209;48.982;8.406;2022-12-08T00:41:36;17.93;;;10.80;;
4389;SDS011;2209;48.982;8.406;2022-12-08T00:44:16;16.90;;;10.80;;
4389;SDS011;2209;48.982;8.406;2022-12-08T00:46:39;18.13;;;11.93;;
4389;SDS011;2209;48.982;8.406;2022-12-08T00:49:01;14.63;;;10.43;;
4389;SDS011;2209;48.982;8.406;2022-12-08T00:51:25;18.20;;;13.23;;
4389;SDS011;2209;48.982;8.406;2022-12-08T00:53:47;20.13;;;12.20;;
4389;SDS011;2209;48.982;8.406;2022-12-08T00:56:09;16.13;;;11.37;;
4389;SDS011;2209;48.982;8.406;2022-12-08T00:58:31;19.10;;;11.87;;
4389;SDS011;2209;48.982;8.406;2022-12-08T01:00:53;17.67;;;11.60;;
4389;SDS011;2209;48.982;8.406;2022-12-08T01:03:15;18.50;;;12.00;;
4389;SDS011;2209;48.982;8.406;2022-12-08T01:05:37;17.97;;;11.90;;
4389;SDS011;2209;48.982;8.406;2022-12-08T01:08:02;17.97;;;12.50;;
4389;SDS011;2209;48.982;8.406;2022-12-08T01:10:25;19.03;;;12.33;;
4389;SDS011;2209;48.982;8.406;2022-12-08T01:12:47;20.83;;;12.43;;
4389;SDS011;2209;48.982;8.406;2022-12-08T01:15:09;18.70;;;12.43;;
4389;SDS011;2209;48.982;8.406;2022-12-08T01:17:31;14.43;;;11.07;;
4389;SDS011;2209;48.982;8.406;2022-12-08T01:19:53;15.33;;;11.40;;
4389;SDS011;2209;48.982;8.406;2022-12-08T01:22:15;19.77;;;13.07;;
4389;SDS011;2209;48.982;8.406;2022-12-08T01:24:39;19.40;;;12.10;;
4389;SDS011;2209;48.982;8.406;2022-12-08T01:27:01;17.97;;;11.93;;
4389;SDS011;2209;48.982;8.406;2022-12-08T01:29:23;19.00;;;11.93;;
4389;SDS011;2209;48.982;8.406;2022-12-08T01:31:46;15.10;;;11.50;;
4389;SDS011;2209;48.982;8.406;2022-12-08T01:34:09;17.50;;;12.20;;
4389;SDS011;2209;48.982;8.406;2022-12-08T01:36:32;19.60;;;11.40;;
4389;SDS011;2209;48.982;8.406;2022-12-08T01:38:58;15.20;;;11.20;;
4389;SDS011;2209;48.982;8.406;2022-12-08T01:41:23;16.00;;;12.07;;
4389;SDS011;2209;48.982;8.406;2022-12-08T01:43:58;15.80;;;11.40;;
4389;SDS011;2209;48.982;8.406;2022-12-08T01:46:21;16.37;;;11.20;;
4389;SDS011;2209;48.982;8.406;2022-12-08T01:48:43;14.30;;;10.57;;
4389;SDS011;2209;48.982;8.406;2022-12-08T01:51:05;14.57;;;9.57;;
4389;SDS011;2209;48.982;8.406;2022-12-08T01:53:28;13.60;;;10.47;;
4389;SDS011;2209;48.982;8.406;2022-12-08T01:55:53;19.70;;;10.90;;
4389;SDS011;2209;48.982;8.406;2022-12-08T01:58:22;12.73;;;9.40;;
4389;SDS011;2209;48.982;8.406;2022-12-08T02:00:47;14.43;;;9.80;;
4389;SDS011;2209;48.982;8.406;2022-12-08T02:03:10;15.93;;;10.00;;
4389;SDS011;2209;48.982;8.406;2022-12-08T02:05:37;17.10;;;10.90;;
4389;SDS011;2209;48.982;8.406;2022-12-08T02:08:02;12.60;;;9.77;;
4389;SDS011;2209;48.982;8.406;2022-12-08T02:10:28;11.00;;;8.70;;
4389;SDS011;2209;48.982;8.406;2022-12-08T02:12:51;15.90;;;10.13;;
4389;SDS011;2209;48.982;8.406;2022-12-08T02:15:18;15.50;;;10.47;;
4389;SDS011;2209;48.982;8.406;2022-12-08T02:17:44;13.37;;;9.57;;
4389;SDS011;2209;48.982;8.406;2022-12-08T02:20:22;15.50;;;10.03;;
4389;SDS011;2209;48.982;8.406;2022-12-08T02:22:59;15.03;;;10.40;;
4389;SDS011;2209;48.982;8.406;2022-12-08T02:25:30;15.03;;;10.40;;
4389;SDS011;2209;48.982;8.406;2022-12-08T02:28:02;14.27;;;10.10;;
4389;SDS011;2209;48.982;8.406;2022-12-08T02:30:42;17.20;;;10.80;;
4389;SDS011;2209;48.982;8.406;2022-12-08T02:36:28;13.47;;;9.80;;
4389;SDS011;2209;48.982;8.406;2022-12-08T02:38:55;14.13;;;9.27;;
4389;SDS011;2209;48.982;8.406;2022-12-08T02:41:26;17.57;;;10.67;;
4389;SDS011;2209;48.982;8.406;2022-12-08T02:43:54;14.30;;;9.90;;
4389;SDS011;2209;48.982;8.406;2022-12-08T02:46:22;14.13;;;9.90;;
4389;SDS011;2209;48.982;8.406;2022-12-08T02:48:49;14.27;;;10.23;;
4389;SDS011;2209;48.982;8.406;2022-12-08T02:51:12;15.80;;;9.60;;
4389;SDS011;2209;48.982;8.406;2022-12-08T02:53:35;17.03;;;9.00;;
4389;SDS011;2209;48.982;8.406;2022-12-08T02:55:59;15.40;;;9.80;;
4389;SDS011;2209;48.982;8.406;2022-12-08T02:58:42;12.10;;;9.13;;
4389;SDS011;2209;48.982;8.406;2022-12-08T03:01:20;13.90;;;9.03;;
4389;SDS011;2209;48.982;8.406;2022-12-08T03:03:57;13.10;;;10.27;;
4389;SDS011;2209;48.982;8.406;2022-12-08T03:06:24;15.27;;;10.53;;
4389;SDS011;2209;48.982;8.406;2022-12-08T03:08:54;18.37;;;10.47;;
4389;SDS011;2209;48.982;8.406;2022-12-08T03:11:22;14.93;;;10.17;;
4389;SDS011;2209;48.982;8.406;2022-12-08T03:13:49;13.77;;;9.90;;
4389;SDS011;2209;48.982;8.406;2022-12-08T03:16:14;15.60;;;10.03;;
4389;SDS011;2209;48.982;8.406;2022-12-08T03:18:39;14.00;;;9.10;;
4389;SDS011;2209;48.982;8.406;2022-12-08T03:21:08;13.23;;;9.63;;
4389;SDS011;2209;48.982;8.406;2022-12-08T03:23:31;16.17;;;11.70;;
4389;SDS011;2209;48.982;8.406;2022-12-08T03:25:59;13.83;;;9.50;;
4389;SDS011;2209;48.982;8.406;2022-12-08T03:28:25;15.00;;;10.03;;
4389;SDS011;2209;48.982;8.406;2022-12-08T03:30:47;13.27;;;8.93;;
4389;SDS011;2209;48.982;8.406;2022-12-08T03:33:14;15.40;;;9.00;;
4389;SDS011;2209;48.982;8.406;2022-12-08T03:35:40;16.80;;;9.80;;
4389;SDS011;2209;48.982;8.406;2022-12-08T03:38:04;12.97;;;8.73;;
4389;SDS011;2209;48.982;8.406;2022-12-08T03:40:28;17.77;;;10.53;;
4389;SDS011;2209;48.982;8.406;2022-12-08T03:42:51;17.33;;;10.33;;
4389;SDS011;2209;48.982;8.406;2022-12-08T03:45:13;16.73;;;11.10;;
4389;SDS011;2209;48.982;8.406;2022-12-08T03:47:35;13.50;;;9.50;;
4389;SDS011;2209;48.982;8.406;2022-12-08T03:49:57;12.33;;;8.97;;
4389;SDS011;2209;48.982;8.406;2022-12-08T03:52:19;11.47;;;8.40;;
4389;SDS011;2209;48.982;8.406;2022-12-08T03:54:42;12.60;;;9.30;;
4389;SDS011;2209;48.982;8.406;2022-12-08T03:57:04;14.30;;;10.63;;
4389;SDS011;2209;48.982;8.406;2022-12-08T03:59:27;14.93;;;10.50;;
4389;SDS011;2209;48.982;8.406;2022-12-08T04:01:49;12.93;;;9.27;;
4389;SDS011;2209;48.982;8.406;2022-12-08T04:04:11;12.73;;;8.80;;
4389;SDS011;2209;48.982;8.406;2022-12-08T04:06:33;17.20;;;10.30;;
4389;SDS011;2209;48.982;8.406;2022-12-08T04:08:55;14.43;;;9.80;;
4389;SDS011;2209;48.982;8.406;2022-12-08T04:11:18;13.70;;;9.63;;
4389;SDS011;2209;48.982;8.406;2022-12-08T04:13:42;14.57;;;9.97;;
4389;SDS011;2209;48.982;8.406;2022-12-08T04:16:06;14.10;;;9.57;;
4389;SDS011;2209;48.982;8.406;2022-12-08T04:18:29;15.60;;;9.60;;
4389;SDS011;2209;48.982;8.406;2022-12-08T04:20:51;12.63;;;9.47;;
4389;SDS011;2209;48.982;8.406;2022-12-08T04:23:13;16.33;;;9.63;;
4389;SDS011;2209;48.982;8.406;2022-12-08T04:25:35;16.77;;;10.07;;
4389;SDS011;2209;48.982;8.406;2022-12-08T04:27:58;15.50;;;9.80;;
4389;SDS011;2209;48.982;8.406;2022-12-08T04:30:20;12.87;;;9.90;;
4389;SDS011;2209;48.982;8.406;2022-12-08T04:32:43;16.00;;;10.70;;
4389;SDS011;2209;48.982;8.406;2022-12-08T04:35:06;17.20;;;11.80;;
4389;SDS011;2209;48.982;8.406;2022-12-08T04:37:28;16.43;;;11.77;;
4389;SDS011;2209;48.982;8.406;2022-12-08T04:39:50;18.20;;;11.63;;
4389;SDS011;2209;48.982;8.406;2022-12-08T04:42:12;17.17;;;12.40;;
4389;SDS011;2209;48.982;8.406;2022-12-08T04:44:34;19.57;;;12.53;;
4389;SDS011;2209;48.982;8.406;2022-12-08T04:46:56;19.47;;;12.13;;
4389;SDS011;2209;48.982;8.406;2022-12-08T04:49:20;18.63;;;12.40;;
4389;SDS011;2209;48.982;8.406;2022-12-08T04:51:42;19.13;;;12.10;;
4389;SDS011;2209;48.982;8.406;2022-12-08T04:54:04;18.80;;;13.70;;
4389;SDS011;2209;48.982;8.406;2022-12-08T04:56:26;19.30;;;12.43;;
4389;SDS011;2209;48.982;8.406;2022-12-08T04:58:48;19.83;;;13.93;;
4389;SDS011;2209;48.982;8.406;2022-12-08T05:01:10;25.57;;;13.87;;
4389;SDS011;2209;48.982;8.406;2022-12-08T05:03:33;20.67;;;13.83;;
4389;SDS011;2209;48.982;8.406;2022-12-08T05:05:57;17.47;;;12.43;;
4389;SDS011;2209;48.982;8.406;2022-12-08T05:08:19;21.43;;;13.73;;
4389;SDS011;2209;48.982;8.406;2022-12-08T05:10:41;21.00;;;13.73;;
4389;SDS011;2209;48.982;8.406;2022-12-08T05:13:03;22.70;;;13.97;;
4389;SDS011;2209;48.982;8.406;2022-12-08T05:15:25;22.10;;;12.70;;
4389;SDS011;2209;48.982;8.406;2022-12-08T05:17:48;22.93;;;12.90;;
4389;SDS011;2209;48.982;8.406;2022-12-08T05:20:10;20.20;;;13.60;;
4389;SDS011;2209;48.982;8.406;2022-12-08T05:22:34;23.30;;;14.30;;
4389;SDS011;2209;48.982;8.406;2022-12-08T05:24:56;22.80;;;13.60;;
4389;SDS011;2209;48.982;8.406;2022-12-08T05:27:18;22.37;;;14.73;;
4389;SDS011;2209;48.982;8.406;2022-12-08T05:29:40;22.97;;;14.93;;
4389;SDS011;2209;48.982;8.406;2022-12-08T05:32:02;18.20;;;13.63;;
4389;SDS011;2209;48.982;8.406;2022-12-08T05:34:25;20.53;;;13.60;;
4389;SDS011;2209;48.982;8.406;2022-12-08T05:36:47;19.83;;;13.53;;
4389;SDS011;2209;48.982;8.406;2022-12-08T05:39:11;22.90;;;15.00;;
4389;SDS011;2209;48.982;8.406;2022-12-08T05:41:34;24.63;;;13.70;;
4389;SDS011;2209;48.982;8.406;2022-12-08T05:43:56;20.53;;;14.50;;
4389;SDS011;2209;48.982;8.406;2022-12-08T05:46:18;25.40;;;14.87;;
4389;SDS011;2209;48.982;8.406;2022-12-08T05:48:40;19.73;;;14.00;;
4389;SDS011;2209;48.982;8.406;2022-12-08T05:51:02;22.00;;;15.30;;
4389;SDS011;2209;48.982;8.406;2022-12-08T05:53:25;21.93;;;14.77;;
4389;SDS011;2209;48.982;8.406;2022-12-08T05:55:49;23.40;;;13.57;;
4389;SDS011;2209;48.982;8.406;2022-12-08T05:58:11;23.37;;;16.90;;
4389;SDS011;2209;48.982;8.406;2022-12-08T06:00:34;26.17;;;15.57;;
4389;SDS011;2209;48.982;8.406;2022-12-08T06:02:56;23.90;;;14.67;;
4389;SDS011;2209;48.982;8.406;2022-12-08T06:05:18;22.10;;;14.93;;
4389;SDS011;2209;48.982;8.406;2022-12-08T06:07:40;21.67;;;15.30;;
4389;SDS011;2209;48.982;8.406;2022-12-08T06:10:03;19.97;;;14.10;;
4389;SDS011;2209;48.982;8.406;2022-12-08T06:12:27;26.50;;;15.37;;
4389;SDS011;2209;48.982;8.406;2022-12-08T06:14:49;22.20;;;14.40;;
4389;SDS011;2209;48.982;8.406;2022-12-08T06:17:11;23.43;;;14.57;;
4389;SDS011;2209;48.982;8.406;2022-12-08T06:19:33;20.47;;;13.83;;
4389;SDS011;2209;48.982;8.406;2022-12-08T06:21:56;25.13;;;15.00;;
4389;SDS011;2209;48.982;8.406;2022-12-08T06:24:17;24.90;;;14.90;;
4389;SDS011;2209;48.982;8.406;2022-12-08T06:26:40;23.00;;;14.40;;
4389;SDS011;2209;48.982;8.406;2022-12-08T06:29:04;23.57;;;14.07;;
4389;SDS011;2209;48.982;8.406;2022-12-08T06:31:26;21.17;;;14.07;;
4389;SDS011;2209;48.982;8.406;2022-12-08T06:33:48;22.30;;;14.97;;
4389;SDS011;2209;48.982;8.406;2022-12-08T06:36:11;20.20;;;13.07;;
4389;SDS011;2209;48.982;8.406;2022-12-08T06:38:34;21.50;;;14.53;;
4389;SDS011;2209;48.982;8.406;2022-12-08T06:40:56;22.70;;;15.30;;
4389;SDS011;2209;48.982;8.406;2022-12-08T06:43:19;23.53;;;14.70;;
4389;SDS011;2209;48.982;8.406;2022-12-08T06:45:43;22.13;;;14.70;;
4389;SDS011;2209;48.982;8.406;2022-12-08T06:48:05;22.17;;;14.67;;
4389;SDS011;2209;48.982;8.406;2022-12-08T06:50:27;22.83;;;14.23;;
4389;SDS011;2209;48.982;8.406;2022-12-08T06:52:49;27.00;;;15.37;;
4389;SDS011;2209;48.982;8.406;2022-12-08T06:55:11;20.10;;;13.73;;
4389;SDS011;2209;48.982;8.406;2022-12-08T06:57:34;23.57;;;16.00;;
4389;SDS011;2209;48.982;8.406;2022-12-08T06:59:56;19.90;;;14.20;;
4389;SDS011;2209;48.982;8.406;2022-12-08T07:02:19;24.33;;;15.13;;
4389;SDS011;2209;48.982;8.406;2022-12-08T07:04:41;21.13;;;14.37;;
4389;SDS011;2209;48.982;8.406;2022-12-08T07:07:04;23.17;;;16.00;;
4389;SDS011;2209;48.982;8.406;2022-12-08T07:12:43;21.00;;;14.40;;
4389;SDS011;2209;48.982;8.406;2022-12-08T07:15:07;21.47;;;14.27;;
4389;SDS011;2209;48.982;8.406;2022-12-08T07:17:32;22.23;;;14.57;;
4389;SDS011;2209;48.982;8.406;2022-12-08T07:19:55;20.67;;;14.63;;
4389;SDS011;2209;48.982;8.406;2022-12-08T07:22:17;19.83;;;14.07;;
4389;SDS011;2209;48.982;8.406;2022-12-08T07:24:40;21.07;;;13.80;;
4389;SDS011;2209;48.982;8.406;2022-12-08T07:27:03;21.33;;;14.60;;
4389;SDS011;2209;48.982;8.406;2022-12-08T07:29:26;18.60;;;15.23;;
4389;SDS011;2209;48.982;8.406;2022-12-08T07:31:48;17.97;;;13.30;;
4389;SDS011;2209;48.982;8.406;2022-12-08T07:34:13;23.07;;;14.70;;
4389;SDS011;2209;48.982;8.406;2022-12-08T07:36:35;21.30;;;14.70;;
4389;SDS011;2209;48.982;8.406;2022-12-08T07:38:59;23.27;;;14.97;;
4389;SDS011;2209;48.982;8.406;2022-12-08T07:41:22;24.83;;;16.10;;
4389;SDS011;2209;48.982;8.406;2022-12-08T07:43:46;29.80;;;16.80;;
4389;SDS011;2209;48.982;8.406;2022-12-08T07:46:10;23.40;;;16.70;;
4389;SDS011;2209;48.982;8.406;2022-12-08T07:48:33;23.50;;;16.60;;
4389;SDS011;2209;48.982;8.406;2022-12-08T07:50:59;20.87;;;15.33;;
4389;SDS011;2209;48.982;8.406;2022-12-08T07:53:22;26.57;;;17.60;;
4389;SDS011;2209;48.982;8.406;2022-12-08T07:55:44;26.17;;;16.43;;
4389;SDS011;2209;48.982;8.406;2022-12-08T07:58:06;23.70;;;16.30;;
4389;SDS011;2209;48.982;8.406;2022-12-08T08:00:29;20.87;;;15.13;;
4389;SDS011;2209;48.982;8.406;2022-12-08T08:02:51;22.00;;;15.20;;
4389;SDS011;2209;48.982;8.406;2022-12-08T08:05:13;24.50;;;16.20;;
4389;SDS011;2209;48.982;8.406;2022-12-08T08:07:36;35.37;;;17.90;;
4389;SDS011;2209;48.982;8.406;2022-12-08T08:09:59;25.60;;;17.57;;
4389;SDS011;2209;48.982;8.406;2022-12-08T08:12:21;31.20;;;17.77;;
4389;SDS011;2209;48.982;8.406;2022-12-08T08:14:43;24.10;;;16.13;;
4389;SDS011;2209;48.982;8.406;2022-12-08T08:17:05;26.30;;;17.43;;
4389;SDS011;2209;48.982;8.406;2022-12-08T08:19:27;22.00;;;16.97;;
4389;SDS011;2209;48.982;8.406;2022-12-08T08:21:49;26.07;;;16.53;;
4389;SDS011;2209;48.982;8.406;2022-12-08T08:24:13;27.47;;;17.53;;
4389;SDS011;2209;48.982;8.406;2022-12-08T08:26:35;28.37;;;16.97;;
4389;SDS011;2209;48.982;8.406;2022-12-08T08:28:57;26.10;;;17.87;;
4389;SDS011;2209;48.982;8.406;2022-12-08T08:31:22;29.60;;;18.47;;
4389;SDS011;2209;48.982;8.406;2022-12-08T08:33:45;26.53;;;15.80;;
4389;SDS011;2209;48.982;8.406;2022-12-08T08:36:08;28.07;;;17.10;;
4389;SDS011;2209;48.982;8.406;2022-12-08T08:38:30;31.23;;;17.47;;
4389;SDS011;2209;48.982;8.406;2022-12-08T08:40:54;25.57;;;16.30;;
4389;SDS011;2209;48.982;8.406;2022-12-08T08:43:16;23.73;;;16.37;;
4389;SDS011;2209;48.982;8.406;2022-12-08T08:45:49;22.77;;;15.57;;
4389;SDS011;2209;48.982;8.406;2022-12-08T08:48:11;26.43;;;16.80;;
4389;SDS011;2209;48.982;8.406;2022-12-08T08:50:33;23.43;;;14.63;;
4389;SDS011;2209;48.982;8.406;2022-12-08T08:52:55;23.60;;;16.03;;
4389;SDS011;2209;48.982;8.406;2022-12-08T08:55:17;20.23;;;15.20;;
4389;SDS011;2209;48.982;8.406;2022-12-08T08:57:40;24.30;;;16.33;;
4389;SDS011;2209;48.982;8.406;2022-12-08T09:00:03;19.87;;;14.47;;
4389;SDS011;2209;48.982;8.406;2022-12-08T09:02:29;22.93;;;14.03;;
4389;SDS011;2209;48.982;8.406;2022-12-08T09:04:51;25.90;;;15.93;;
4389;SDS011;2209;48.982;8.406;2022-12-08T09:07:13;23.37;;;15.53;;
4389;SDS011;2209;48.982;8.406;2022-12-08T09:09:36;22.87;;;14.83;;
4389;SDS011;2209;48.982;8.406;2022-12-08T09:11:58;23.67;;;14.83;;
4389;SDS011;2209;48.982;8.406;2022-12-08T09:14:22;23.50;;;15.63;;
4389;SDS011;2209;48.982;8.406;2022-12-08T09:16:44;21.17;;;14.03;;
4389;SDS011;2209;48.982;8.406;2022-12-08T09:19:06;20.47;;;14.83;;
4389;SDS011;2209;48.982;8.406;2022-12-08T09:21:28;21.43;;;14.07;;
4389;SDS011;2209;48.982;8.406;2022-12-08T09:23:51;19.93;;;13.53;;
4389;SDS011;2209;48.982;8.406;2022-12-08T09:26:15;22.60;;;14.40;;
4389;SDS011;2209;48.982;8.406;2022-12-08T09:28:41;19.23;;;13.60;;
4389;SDS011;2209;48.982;8.406;2022-12-08T09:31:07;21.57;;;14.40;;
4389;SDS011;2209;48.982;8.406;2022-12-08T09:33:29;19.30;;;13.13;;
4389;SDS011;2209;48.982;8.406;2022-12-08T09:35:51;19.47;;;13.83;;
4389;SDS011;2209;48.982;8.406;2022-12-08T09:38:13;24.53;;;15.03;;
4389;SDS011;2209;48.982;8.406;2022-12-08T09:40:36;18.60;;;13.03;;
4389;SDS011;2209;48.982;8.406;2022-12-08T09:43:05;23.27;;;15.03;;
4389;SDS011;2209;48.982;8.406;2022-12-08T09:45:33;26.60;;;15.40;;
4389;SDS011;2209;48.982;8.406;2022-12-08T09:47:58;21.97;;;15.70;;
4389;SDS011;2209;48.982;8.406;2022-12-08T09:50:28;22.30;;;15.43;;
4389;SDS011;2209;48.982;8.406;2022-12-08T09:52:55;22.87;;;16.47;;
4389;SDS011;2209;48.982;8.406;2022-12-08T09:55:21;24.43;;;16.80;;
4389;SDS011;2209;48.982;8.406;2022-12-08T09:57:51;21.73;;;16.20;;
4389;SDS011;2209;48.982;8.406;2022-12-08T10:00:20;21.50;;;15.90;;
4389;SDS011;2209;48.982;8.406;2022-12-08T10:02:44;26.10;;;15.13;;
4389;SDS011;2209;48.982;8.406;2022-12-08T10:05:11;25.30;;;17.03;;
4389;SDS011;2209;48.982;8.406;2022-12-08T10:07:37;26.93;;;17.90;;
4389;SDS011;2209;48.982;8.406;2022-12-08T10:10:05;23.63;;;15.27;;
4389;SDS011;2209;48.982;8.406;2022-12-08T10:12:37;26.63;;;17.57;;
4389;SDS011;2209;48.982;8.406;2022-12-08T10:15:07;27.27;;;16.53;;
4389;SDS011;2209;48.982;8.406;2022-12-08T10:17:51;25.03;;;15.20;;
4389;SDS011;2209;48.982;8.406;2022-12-08T10:20:16;23.13;;;15.50;;
4389;SDS011;2209;48.982;8.406;2022-12-08T10:22:40;25.57;;;16.93;;
4389;SDS011;2209;48.982;8.406;2022-12-08T10:25:04;25.03;;;16.13;;
4389;SDS011;2209;48.982;8.406;2022-12-08T10:27:32;24.70;;;15.30;;
4389;SDS011;2209;48.982;8.406;2022-12-08T10:29:56;27.17;;;16.70;;
4389;SDS011;2209;48.982;8.406;2022-12-08T10:32:19;25.20;;;16.77;;
4389;SDS011;2209;48.982;8.406;2022-12-08T10:34:58;24.60;;;15.30;;
4389;SDS011;2209;48.982;8.406;2022-12-08T10:37:27;30.23;;;15.67;;
4389;SDS011;2209;48.982;8.406;2022-12-08T10:39:55;19.33;;;14.20;;
4389;SDS011;2209;48.982;8.406;2022-12-08T10:42:20;23.33;;;15.57;;
4389;SDS011;2209;48.982;8.406;2022-12-08T10:44:50;23.70;;;14.17;;
4389;SDS011;2209;48.982;8.406;2022-12-08T10:47:19;21.13;;;14.47;;
4389;SDS011;2209;48.982;8.406;2022-12-08T10:49:43;20.33;;;14.50;;
4389;SDS011;2209;48.982;8.406;2022-12-08T10:52:08;23.00;;;15.50;;
4389;SDS011;2209;48.982;8.406;2022-12-08T10:54:43;25.40;;;15.17;;
4389;SDS011;2209;48.982;8.406;2022-12-08T10:57:05;20.13;;;14.30;;
4389;SDS011;2209;48.982;8.406;2022-12-08T10:59:40;26.33;;;14.70;;
4389;SDS011;2209;48.982;8.406;2022-12-08T11:02:06;22.23;;;15.10;;
4389;SDS011;2209;48.982;8.406;2022-12-08T11:04:36;21.87;;;15.03;;
4389;SDS011;2209;48.982;8.406;2022-12-08T11:06:58;18.90;;;14.00;;
4389;SDS011;2209;48.982;8.406;2022-12-08T11:09:22;28.00;;;15.60;;
4389;SDS011;2209;48.982;8.406;2022-12-08T11:11:53;19.10;;;13.13;;
4389;SDS011;2209;48.982;8.406;2022-12-08T11:14:18;18.40;;;14.27;;
4389;SDS011;2209;48.982;8.406;2022-12-08T11:16:44;18.70;;;14.17;;
4389;SDS011;2209;48.982;8.406;2022-12-08T11:19:11;22.20;;;15.23;;
4389;SDS011;2209;48.982;8.406;2022-12-08T11:21:36;20.17;;;13.80;;
4389;SDS011;2209;48.982;8.406;2022-12-08T11:23:58;21.20;;;14.10;;
4389;SDS011;2209;48.982;8.406;2022-12-08T11:26:39;20.37;;;13.70;;
4389;SDS011;2209;48.982;8.406;2022-12-08T11:29:13;19.67;;;13.63;;
4389;SDS011;2209;48.982;8.406;2022-12-08T11:31:37;22.17;;;14.13;;
4389;SDS011;2209;48.982;8.406;2022-12-08T11:34:04;19.13;;;13.53;;
4389;SDS011;2209;48.982;8.406;2022-12-08T11:36:31;21.87;;;15.07;;
4389;SDS011;2209;48.982;8.406;2022-12-08T11:38:56;18.30;;;13.70;;
4389;SDS011;2209;48.982;8.406;2022-12-08T11:41:21;18.80;;;13.63;;
4389;SDS011;2209;48.982;8.406;2022-12-08T11:43:49;20.87;;;15.00;;
4389;SDS011;2209;48.982;8.406;2022-12-08T11:46:16;17.97;;;13.43;;
4389;SDS011;2209;48.982;8.406;2022-12-08T11:48:44;20.07;;;13.23;;
4389;SDS011;2209;48.982;8.406;2022-12-08T11:51:10;20.30;;;13.03;;
4389;SDS011;2209;48.982;8.406;2022-12-08T11:53:36;21.37;;;13.00;;
4389;SDS011;2209;48.982;8.406;2022-12-08T11:56:05;16.80;;;11.80;;
4389;SDS011;2209;48.982;8.406;2022-12-08T11:58:34;13.57;;;10.23;;
4389;SDS011;2209;48.982;8.406;2022-12-08T12:00:59;11.07;;;8.40;;
4389;SDS011;2209;48.982;8.406;2022-12-08T12:03:25;11.57;;;8.97;;
4389;SDS011;2209;48.982;8.406;2022-12-08T12:05:55;17.10;;;7.97;;
4389;SDS011;2209;48.982;8.406;2022-12-08T12:08:40;14.97;;;8.90;;
4389;SDS011;2209;48.982;8.406;2022-12-08T12:11:11;12.00;;;8.30;;
4389;SDS011;2209;48.982;8.406;2022-12-08T12:13:59;15.03;;;10.43;;
4389;SDS011;2209;48.982;8.406;2022-12-08T12:16:39;13.77;;;8.67;;
4389;SDS011;2209;48.982;8.406;2022-12-08T12:19:21;11.03;;;8.57;;
4389;SDS011;2209;48.982;8.406;2022-12-08T12:21:45;12.20;;;8.73;;
4389;SDS011;2209;48.982;8.406;2022-12-08T12:24:14;10.93;;;8.50;;
4389;SDS011;2209;48.982;8.406;2022-12-08T12:26:48;12.43;;;9.07;;
4389;SDS011;2209;48.982;8.406;2022-12-08T12:29:16;14.30;;;9.60;;
4389;SDS011;2209;48.982;8.406;2022-12-08T12:31:46;11.00;;;8.83;;
4389;SDS011;2209;48.982;8.406;2022-12-08T12:34:10;10.50;;;8.87;;
4389;SDS011;2209;48.982;8.406;2022-12-08T12:36:49;13.20;;;8.33;;
4389;SDS011;2209;48.982;8.406;2022-12-08T12:39:14;9.03;;;7.50;;
4389;SDS011;2209;48.982;8.406;2022-12-08T12:41:41;11.53;;;8.10;;
4389;SDS011;2209;48.982;8.406;2022-12-08T12:46:58;12.90;;;9.60;;
4389;SDS011;2209;48.982;8.406;2022-12-08T12:49:47;8.63;;;7.00;;
4389;SDS011;2209;48.982;8.406;2022-12-08T12:57:57;10.70;;;7.33;;
4389;SDS011;2209;48.982;8.406;2022-12-08T13:00:39;10.57;;;7.40;;
4389;SDS011;2209;48.982;8.406;2022-12-08T13:03:01;12.00;;;7.23;;
4389;SDS011;2209;48.982;8.406;2022-12-08T13:05:24;11.30;;;6.37;;
4389;SDS011;2209;48.982;8.406;2022-12-08T13:07:50;7.70;;;6.70;;
4389;SDS011;2209;48.982;8.406;2022-12-08T13:10:16;6.90;;;6.10;;
4389;SDS011;2209;48.982;8.406;2022-12-08T13:12:40;10.83;;;6.30;;
4389;SDS011;2209;48.982;8.406;2022-12-08T13:15:04;7.10;;;5.53;;
4389;SDS011;2209;48.982;8.406;2022-12-08T13:17:28;9.07;;;7.53;;
4389;SDS011;2209;48.982;8.406;2022-12-08T13:19:53;7.23;;;5.40;;
4389;SDS011;2209;48.982;8.406;2022-12-08T13:28:12;6.60;;;5.90;;
4389;SDS011;2209;48.982;8.406;2022-12-08T13:30:40;9.47;;;6.23;;
4389;SDS011;2209;48.982;8.406;2022-12-08T13:33:03;8.43;;;6.00;;
4389;SDS011;2209;48.982;8.406;2022-12-08T13:35:30;7.90;;;6.20;;
4389;SDS011;2209;48.982;8.406;2022-12-08T13:37:53;6.23;;;5.37;;
4389;SDS011;2209;48.982;8.406;2022-12-08T13:40:17;6.20;;;5.60;;
4389;SDS011;2209;48.982;8.406;2022-12-08T13:42:45;7.60;;;5.70;;
4389;SDS011;2209;48.982;8.406;2022-12-08T13:45:13;7.63;;;5.50;;
4389;SDS011;2209;48.982;8.406;2022-12-08T13:47:41;8.07;;;5.13;;
4389;SDS011;2209;48.982;8.406;2022-12-08T13:50:09;8.00;;;5.40;;
4389;SDS011;2209;48.982;8.406;2022-12-08T13:52:35;8.77;;;5.60;;
4389;SDS011;2209;48.982;8.406;2022-12-08T13:55:03;7.03;;;4.80;;
4389;SDS011;2209;48.982;8.406;2022-12-08T13:57:28;6.60;;;5.03;;
4389;SDS011;2209;48.982;8.406;2022-12-08T13:59:53;7.97;;;5.40;;
4389;SDS011;2209;48.982;8.406;2022-12-08T14:02:24;6.50;;;5.00;;
4389;SDS011;2209;48.982;8.406;2022-12-08T14:04:48;6.90;;;5.80;;
4389;SDS011;2209;48.982;8.406;2022-12-08T14:07:11;7.20;;;5.13;;
4389;SDS011;2209;48.982;8.406;2022-12-08T14:09:34;8.03;;;5.40;;
4389;SDS011;2209;48.982;8.406;2022-12-08T14:11:58;7.80;;;5.60;;
4389;SDS011;2209;48.982;8.406;2022-12-08T14:14:25;7.20;;;5.40;;
4389;SDS011;2209;48.982;8.406;2022-12-08T14:16:53;7.43;;;5.30;;
4389;SDS011;2209;48.982;8.406;2022-12-08T14:19:17;7.10;;;5.33;;
4389;SDS011;2209;48.982;8.406;2022-12-08T14:21:44;5.23;;;4.70;;
4389;SDS011;2209;48.982;8.406;2022-12-08T14:24:07;9.23;;;6.40;;
4389;SDS011;2209;48.982;8.406;2022-12-08T14:26:32;7.60;;;5.53;;
4389;SDS011;2209;48.982;8.406;2022-12-08T14:28:55;8.90;;;6.70;;
4389;SDS011;2209;48.982;8.406;2022-12-08T14:31:17;5.90;;;5.10;;
4389;SDS011;2209;48.982;8.406;2022-12-08T14:33:40;9.90;;;6.37;;
4389;SDS011;2209;48.982;8.406;2022-12-08T14:36:03;7.50;;;6.47;;
4389;SDS011;2209;48.982;8.406;2022-12-08T14:38:25;10.63;;;6.57;;
4389;SDS011;2209;48.982;8.406;2022-12-08T14:40:48;10.27;;;6.17;;
4389;SDS011;2209;48.982;8.406;2022-12-08T14:43:23;12.90;;;7.10;;
4389;SDS011;2209;48.982;8.406;2022-12-08T14:45:48;8.00;;;6.67;;
4389;SDS011;2209;48.982;8.406;2022-12-08T14:48:22;8.87;;;7.53;;
4389;SDS011;2209;48.982;8.406;2022-12-08T14:50:54;9.67;;;6.73;;
4389;SDS011;2209;48.982;8.406;2022-12-08T14:53:22;10.87;;;8.23;;
4389;SDS011;2209;48.982;8.406;2022-12-08T14:55:45;8.37;;;7.43;;
4389;SDS011;2209;48.982;8.406;2022-12-08T14:58:14;10.03;;;7.27;;
4389;SDS011;2209;48.982;8.406;2022-12-08T15:00:42;7.67;;;6.27;;